Terminal Aerodrome Forecast
Issued by NWS Birmingham, AL

Home | Current Version | Previous Version | Text Only | Print | Product List | Glossary On
Versions: 1 2 3 4 5 6 7 8 9 10 11 12 13
000
FTUS44 KBMX 210600 RRA
TAFBHM
TAF
KBHM 210658Z 2107/2206 00000KT P6SM SCT250
     FM211500 26007KT P6SM SCT040=

USA.gov is the U.S. government's official web portal to all federal, state and local government web resources and services.